createdAt,value
2023-02-26T00:01:27.173Z,101490.13
2023-02-26T00:03:56.260Z,101476.53
2023-02-26T00:06:24.210Z,101496.25
2023-02-26T00:08:51.081Z,101443.53
2023-02-26T00:11:18.187Z,101497.66
2023-02-26T00:13:45.713Z,101516.91
2023-02-26T00:16:29.184Z,101518.78
2023-02-26T00:19:00.949Z,101516.53
2023-02-26T00:21:28.602Z,101491.06
2023-02-26T00:23:55.452Z,101517.78
2023-02-26T00:26:24.035Z,101538.69
2023-02-26T00:28:50.794Z,101536.16
2023-02-26T00:31:18.719Z,101533.97
2023-02-26T00:33:45.491Z,101551.19
2023-02-26T00:36:24.469Z,101551.25
2023-02-26T00:39:13.380Z,101555.66
2023-02-26T00:41:40.157Z,101554.84
2023-02-26T00:44:06.897Z,101556.63
2023-02-26T00:46:45.466Z,101557.84
2023-02-26T00:49:33.551Z,101567.16
2023-02-26T00:52:05.170Z,101575.97
2023-02-26T00:54:32.053Z,101586.50
2023-02-26T00:56:59.418Z,101584.78
2023-02-26T00:59:25.915Z,101575.63
2023-02-26T01:01:53.164Z,101585.97
2023-02-26T01:04:22.416Z,101593.41
2023-02-26T01:06:52.387Z,101599.47
2023-02-26T01:09:36.359Z,101590.44
2023-02-26T01:12:13.241Z,101558.06
2023-02-26T01:14:40.294Z,101603.34
2023-02-26T01:17:26.898Z,101592.09
2023-02-26T01:19:58.237Z,101606.56
2023-02-26T01:22:43.375Z,101616.75
2023-02-26T01:25:22.036Z,101572.81
2023-02-26T01:27:48.704Z,101606.19
2023-02-26T01:30:15.762Z,101600.13
2023-02-26T01:32:58.863Z,101620.59
2023-02-26T01:35:46.031Z,101620.44
2023-02-26T01:38:35.389Z,101606.72
2023-02-26T01:41:18.521Z,101630.69
2023-02-26T01:43:47.872Z,101627.16
2023-02-26T01:46:17.715Z,101626.13
2023-02-26T01:48:56.712Z,101617.44
2023-02-26T01:51:51.790Z,101629.22
2023-02-26T01:54:21.927Z,101621.59
2023-02-26T01:56:50.399Z,101637.50
2023-02-26T01:59:24.138Z,101642.81
2023-02-26T02:01:53.458Z,101640.19
2023-02-26T02:04:20.503Z,101641.09
2023-02-26T02:06:47.928Z,101645.50
2023-02-26T02:09:14.400Z,101645.69
2023-02-26T02:11:53.011Z,101651.00
2023-02-26T02:14:33.399Z,101639.50
2023-02-26T02:17:08.415Z,101655.94
2023-02-26T02:19:56.356Z,101654.59
2023-02-26T02:22:29.030Z,101675.72
2023-02-26T02:25:26.779Z,101676.00
2023-02-26T02:28:31.091Z,101676.34
2023-02-26T02:31:06.903Z,101674.06
2023-02-26T02:33:47.048Z,101673.53
2023-02-26T02:36:21.853Z,101678.91
2023-02-26T02:39:05.374Z,101691.41
2023-02-26T02:41:42.558Z,101668.72
2023-02-26T02:44:15.646Z,101704.91
2023-02-26T02:46:45.667Z,101698.97
2023-02-26T02:49:25.466Z,101697.38
2023-02-26T02:51:58.750Z,101698.31
2023-02-26T02:54:34.441Z,101679.56
2023-02-26T02:57:16.000Z,101714.19
2023-02-26T02:59:48.800Z,101709.13
2023-02-26T03:03:04.426Z,101722.09
2023-02-26T03:05:30.939Z,101700.81
2023-02-26T03:08:01.762Z,101718.88
2023-02-26T03:10:28.811Z,101700.34
2023-02-26T03:12:55.550Z,101733.91
2023-02-26T03:15:46.978Z,101736.75
2023-02-26T03:18:22.458Z,101709.34
2023-02-26T03:21:04.431Z,101740.44
2023-02-26T03:23:45.195Z,101732.09
2023-02-26T03:26:33.815Z,101730.69
2023-02-26T03:29:54.180Z,101746.16
2023-02-26T03:32:50.420Z,101755.97
2023-02-26T03:35:30.053Z,101750.81
2023-02-26T03:38:00.622Z,101742.47
2023-02-26T03:40:40.519Z,101760.47
2023-02-26T03:43:14.387Z,101765.81
2023-02-26T03:45:43.331Z,101770.25
2023-02-26T03:48:13.451Z,101773.13
2023-02-26T03:50:53.652Z,101781.75
2023-02-26T03:53:25.233Z,101793.13
2023-02-26T03:56:24.243Z,101791.41
2023-02-26T03:58:51.396Z,101757.47
2023-02-26T04:01:23.657Z,101765.97
2023-02-26T04:03:58.391Z,101774.03
2023-02-26T04:06:26.123Z,101790.41
2023-02-26T04:08:53.324Z,101801.75
2023-02-26T04:11:22.776Z,101782.31
2023-02-26T04:13:50.679Z,101822.84
2023-02-26T04:16:18.676Z,101820.25
2023-02-26T04:18:45.345Z,101826.41
2023-02-26T04:21:17.322Z,101829.03
2023-02-26T04:23:43.773Z,101818.63
2023-02-26T04:26:10.274Z,101834.34
2023-02-26T04:28:37.867Z,101834.38
2023-02-26T04:31:05.610Z,101839.47
2023-02-26T04:33:33.297Z,101839.59
2023-02-26T04:36:00.585Z,101832.00
2023-02-26T04:38:27.603Z,101845.63
2023-02-26T04:40:54.044Z,101813.03
2023-02-26T04:43:20.539Z,101842.41
2023-02-26T04:45:47.817Z,101853.69
2023-02-26T04:48:15.563Z,101827.13
2023-02-26T04:50:42.328Z,101832.50
2023-02-26T04:53:09.137Z,101814.59
2023-02-26T04:55:36.441Z,101856.72
2023-02-26T04:58:03.923Z,101857.78
2023-02-26T05:00:30.337Z,101846.84
2023-02-26T05:02:56.890Z,101873.69
2023-02-26T05:05:23.902Z,101815.19
2023-02-26T05:07:53.722Z,101866.81
2023-02-26T05:10:20.157Z,101883.16
2023-02-26T05:12:46.582Z,101847.88
2023-02-26T05:15:13.091Z,101860.13
2023-02-26T05:17:39.747Z,101897.94
2023-02-26T05:20:07.380Z,101908.31
2023-02-26T05:22:33.813Z,101898.84
2023-02-26T05:25:00.238Z,101898.91
2023-02-26T05:27:26.672Z,101909.13
2023-02-26T05:29:53.126Z,101874.09
2023-02-26T05:32:19.608Z,101875.78
2023-02-26T05:34:46.048Z,101923.03
2023-02-26T05:37:12.528Z,101910.13
2023-02-26T05:39:41.398Z,101925.63
2023-02-26T05:42:08.712Z,101923.88
2023-02-26T05:44:35.532Z,101929.22
2023-02-26T05:47:03.173Z,101930.00
2023-02-26T05:49:29.630Z,101932.59
2023-02-26T05:51:56.131Z,101936.13
2023-02-26T05:54:22.692Z,101892.38
2023-02-26T05:56:49.119Z,101940.44
2023-02-26T05:59:15.670Z,101942.31
2023-02-26T06:01:42.688Z,101951.81
2023-02-26T06:04:09.579Z,101952.72
2023-02-26T06:06:37.117Z,101921.72
2023-02-26T06:09:03.633Z,101942.53
2023-02-26T06:11:33.478Z,101967.53
2023-02-26T06:14:00.681Z,101976.22
2023-02-26T06:16:27.700Z,101978.81
2023-02-26T06:18:54.285Z,101979.63
2023-02-26T06:21:20.729Z,101981.31
2023-02-26T06:23:47.194Z,101975.31
2023-02-26T06:26:14.886Z,101986.41
2023-02-26T06:28:41.788Z,101990.75
2023-02-26T06:31:08.233Z,101998.53
2023-02-26T06:33:34.651Z,102000.25
2023-02-26T06:36:01.454Z,102000.22
2023-02-26T06:38:28.924Z,102005.44
2023-02-26T06:40:55.613Z,102011.50
2023-02-26T06:43:22.392Z,101988.31
2023-02-26T06:45:49.426Z,102018.44
2023-02-26T06:48:16.174Z,102014.88
2023-02-26T06:50:42.662Z,102024.38
2023-02-26T06:53:09.252Z,102023.38
2023-02-26T06:55:35.713Z,102017.13
2023-02-26T06:58:02.080Z,102022.06
2023-02-26T07:00:28.468Z,102040.97
2023-02-26T07:02:54.933Z,102034.56
2023-02-26T07:05:21.503Z,102017.88
2023-02-26T07:07:48.120Z,102034.88
2023-02-26T07:10:14.563Z,102031.25
2023-02-26T07:12:41.111Z,102036.97
2023-02-26T07:15:08.414Z,102047.19
2023-02-26T07:17:34.888Z,102026.47
2023-02-26T07:20:06.432Z,102060.66
2023-02-26T07:22:33.877Z,102049.59
2023-02-26T07:25:00.403Z,102061.53
2023-02-26T07:27:27.397Z,102063.22
2023-02-26T07:29:53.786Z,102063.16
2023-02-26T07:32:20.298Z,102071.91
2023-02-26T07:34:46.813Z,102077.19
2023-02-26T07:37:13.424Z,102077.97
2023-02-26T07:39:40.028Z,102066.78
2023-02-26T07:42:06.443Z,102070.00
2023-02-26T07:44:32.874Z,102080.38
2023-02-26T07:46:59.973Z,102072.44
2023-02-26T07:49:26.467Z,102068.84
2023-02-26T07:51:53.180Z,102083.44
2023-02-26T07:54:19.664Z,102084.19
2023-02-26T07:56:46.123Z,102084.06
2023-02-26T07:59:12.668Z,102088.19
2023-02-26T08:01:39.101Z,102094.16
2023-02-26T08:04:05.654Z,102059.56
2023-02-26T08:06:32.088Z,102100.69
2023-02-26T08:08:58.525Z,102099.38
2023-02-26T08:11:24.940Z,102066.63
2023-02-26T08:13:51.615Z,102091.19
2023-02-26T08:16:18.394Z,102074.81
2023-02-26T08:18:45.011Z,102088.97
2023-02-26T08:21:11.932Z,102108.66
2023-02-26T08:23:39.277Z,102111.00
2023-02-26T08:26:08.694Z,102098.00
2023-02-26T08:28:35.357Z,102119.19
2023-02-26T08:31:02.613Z,102132.06
2023-02-26T08:33:29.982Z,102128.50
2023-02-26T08:35:59.164Z,102142.09
2023-02-26T08:38:27.838Z,102160.78
2023-02-26T08:40:54.587Z,102162.19
2023-02-26T08:43:21.163Z,102165.28
2023-02-26T08:45:47.760Z,102152.94
2023-02-26T08:48:14.274Z,102154.41
2023-02-26T08:50:40.730Z,102164.25
2023-02-26T08:53:07.632Z,102171.94
2023-02-26T08:55:34.176Z,102149.25
2023-02-26T08:58:00.674Z,102179.72
2023-02-26T09:00:27.307Z,102169.97
2023-02-26T09:02:53.901Z,102147.00
2023-02-26T09:05:20.396Z,102189.53
2023-02-26T09:07:46.830Z,102193.47
2023-02-26T09:10:14.487Z,102195.44
2023-02-26T09:12:41.439Z,102198.34
2023-02-26T09:15:09.971Z,102197.94
2023-02-26T09:17:36.828Z,102201.78
2023-02-26T09:20:04.509Z,102200.19
2023-02-26T09:22:31.006Z,102178.94
2023-02-26T09:24:58.143Z,102203.81
2023-02-26T09:27:25.139Z,102210.97
2023-02-26T09:29:51.631Z,102214.72
2023-02-26T09:32:18.129Z,102219.34
2023-02-26T09:34:44.598Z,102183.31
2023-02-26T09:37:11.120Z,102204.41
2023-02-26T09:39:37.872Z,102220.56
2023-02-26T09:42:22.266Z,102208.25
2023-02-26T09:44:49.120Z,102235.31
2023-02-26T09:47:27.225Z,102237.34
2023-02-26T09:50:05.938Z,102244.75
2023-02-26T09:52:46.977Z,102217.56
2023-02-26T09:55:28.169Z,102225.06
2023-02-26T09:58:00.795Z,102241.06
2023-02-26T10:00:38.458Z,102243.66
2023-02-26T10:03:23.766Z,102250.91
2023-02-26T10:06:08.648Z,102256.63
2023-02-26T10:08:52.433Z,102227.31
2023-02-26T10:11:31.208Z,102255.28
2023-02-26T10:14:11.992Z,102233.91
2023-02-26T10:16:46.251Z,102256.69
2023-02-26T10:19:20.932Z,102263.88
2023-02-26T10:21:56.693Z,102263.72
2023-02-26T10:24:31.922Z,102270.59
2023-02-26T10:27:06.788Z,102248.66
2023-02-26T10:29:56.302Z,102275.44
2023-02-26T10:32:38.695Z,102274.09
2023-02-26T10:35:18.212Z,102253.03
2023-02-26T10:37:52.223Z,102288.50
2023-02-26T10:40:43.241Z,102286.44
2023-02-26T10:43:44.767Z,102285.66
2023-02-26T10:46:37.996Z,102286.94
2023-02-26T10:49:07.567Z,102294.41
2023-02-26T10:51:39.713Z,102271.25
2023-02-26T10:54:44.739Z,102309.97
2023-02-26T10:57:35.717Z,102303.38
2023-02-26T11:00:05.321Z,102302.41
2023-02-26T11:02:39.736Z,102307.72
2023-02-26T11:05:16.311Z,102309.94
2023-02-26T11:07:45.328Z,102257.75
2023-02-26T11:10:19.977Z,102310.59
2023-02-26T11:12:47.357Z,102274.28
2023-02-26T11:15:16.944Z,102306.19
2023-02-26T11:17:43.659Z,102308.94
2023-02-26T11:20:16.030Z,102310.19
2023-02-26T11:22:49.028Z,102317.38
2023-02-26T11:25:20.374Z,102313.00
2023-02-26T11:27:50.879Z,102306.91
2023-02-26T11:30:20.380Z,102287.63
2023-02-26T11:32:51.487Z,102320.03
2023-02-26T11:35:22.623Z,102307.25
2023-02-26T11:37:55.805Z,102332.28
2023-02-26T11:40:26.721Z,102311.63
2023-02-26T11:43:00.437Z,102322.00
2023-02-26T11:45:27.122Z,102296.03
2023-02-26T11:48:02.280Z,102318.31
2023-02-26T11:50:30.346Z,102306.22
2023-02-26T11:53:05.360Z,102335.88
2023-02-26T11:55:40.016Z,102332.94
2023-02-26T11:58:18.701Z,102327.22
2023-02-26T12:00:46.471Z,102332.00
2023-02-26T12:03:28.774Z,102301.91
2023-02-26T12:05:56.023Z,102326.84
2023-02-26T12:08:28.325Z,102279.16
2023-02-26T12:11:04.084Z,102308.53
2023-02-26T12:13:54.604Z,102296.53
2023-02-26T12:16:31.221Z,102317.00
2023-02-26T12:19:04.379Z,102290.19
2023-02-26T12:21:45.574Z,102267.41
2023-02-26T12:24:35.566Z,102310.44
2023-02-26T12:27:10.248Z,102263.03
2023-02-26T12:30:03.190Z,102311.78
2023-02-26T12:32:47.965Z,102309.25
2023-02-26T12:35:33.629Z,102307.59
2023-02-26T12:38:25.736Z,102304.09
2023-02-26T12:41:30.857Z,102297.16
2023-02-26T12:44:00.515Z,102295.59
2023-02-26T12:46:52.453Z,102302.63
2023-02-26T12:49:54.288Z,102310.09
2023-02-26T12:53:04.148Z,102304.59
2023-02-26T12:55:44.680Z,102298.00
2023-02-26T12:58:26.219Z,102313.16
2023-02-26T13:00:55.690Z,102311.28
2023-02-26T13:03:50.027Z,102310.75
2023-02-26T13:06:19.550Z,102306.06
2023-02-26T13:08:52.213Z,102299.03
2023-02-26T13:11:54.998Z,102303.13
2023-02-26T13:14:32.197Z,102303.97
2023-02-26T13:17:05.544Z,102253.38
2023-02-26T13:19:49.535Z,102303.06
2023-02-26T13:22:18.961Z,102306.28
2023-02-26T13:25:12.821Z,102309.88
2023-02-26T13:27:41.296Z,102288.13
2023-02-26T13:30:21.780Z,102299.72
2023-02-26T13:35:46.802Z,102310.66
2023-02-26T13:38:50.410Z,102312.91
2023-02-26T13:41:26.238Z,102317.28
2023-02-26T13:43:58.512Z,102314.03
2023-02-26T13:46:48.440Z,102302.00
2023-02-26T13:49:38.262Z,102271.78
2023-02-26T13:52:04.749Z,102277.38
2023-02-26T13:54:44.215Z,102295.69
2023-02-26T13:57:25.936Z,102305.44
2023-02-26T13:59:58.991Z,102301.25
2023-02-26T14:02:43.284Z,102304.88
2023-02-26T14:05:29.687Z,102304.34
2023-02-26T14:07:59.089Z,102305.44
2023-02-26T14:10:47.120Z,102306.47
2023-02-26T14:13:23.079Z,102309.03
2023-02-26T14:16:22.941Z,102304.16
2023-02-26T14:18:52.106Z,102305.59
2023-02-26T14:21:28.255Z,102308.63
2023-02-26T14:24:01.555Z,102311.69
2023-02-26T14:26:33.266Z,102311.19
2023-02-26T14:29:05.438Z,102320.59
2023-02-26T14:31:54.227Z,102311.69
2023-02-26T14:34:26.608Z,102322.53
2023-02-26T14:36:56.332Z,102298.69
2023-02-26T14:39:25.040Z,102306.22
2023-02-26T14:41:58.936Z,102291.22
2023-02-26T14:44:37.182Z,102282.00
2023-02-26T14:47:04.182Z,102297.09
2023-02-26T14:49:37.625Z,102311.25
2023-02-26T14:52:37.013Z,102318.66
2023-02-26T14:55:20.413Z,102319.03
2023-02-26T14:58:06.245Z,102318.13
2023-02-26T15:00:45.093Z,102326.41
2023-02-26T15:03:33.495Z,102330.97
2023-02-26T15:06:27.288Z,102349.25
2023-02-26T15:09:05.635Z,102329.63
2023-02-26T15:11:43.925Z,102323.19
2023-02-26T15:14:44.371Z,102314.34
2023-02-26T15:17:29.572Z,102337.38
2023-02-26T15:20:15.000Z,102332.34
2023-02-26T15:22:59.465Z,102332.34
2023-02-26T15:25:32.202Z,102340.81
2023-02-26T15:27:58.755Z,102340.38
2023-02-26T15:30:25.946Z,102337.19
2023-02-26T15:32:57.397Z,102336.47
2023-02-26T15:35:24.328Z,102304.72
2023-02-26T15:37:54.162Z,102336.78
2023-02-26T15:40:20.997Z,102346.72
2023-02-26T15:42:51.873Z,102343.84
2023-02-26T15:45:18.209Z,102346.75
2023-02-26T15:47:44.783Z,102336.47
2023-02-26T15:50:16.871Z,102337.84
2023-02-26T15:52:44.044Z,102332.69
2023-02-26T15:55:16.908Z,102362.16
2023-02-26T15:57:43.855Z,102354.72
2023-02-26T16:00:16.336Z,102361.59
2023-02-26T16:02:45.472Z,102348.56
2023-02-26T16:05:16.307Z,102362.50
2023-02-26T16:07:42.803Z,102357.69
2023-02-26T16:10:38.295Z,102363.41
2023-02-26T16:13:06.806Z,102352.28
2023-02-26T16:15:37.165Z,102368.13
2023-02-26T16:18:13.122Z,102373.94
2023-02-26T16:20:44.211Z,102356.38
2023-02-26T16:23:21.867Z,102380.03
2023-02-26T16:25:55.516Z,102378.16
2023-02-26T16:28:26.860Z,102359.13
2023-02-26T16:30:56.115Z,102375.06
2023-02-26T16:33:24.945Z,102381.22
2023-02-26T16:36:11.192Z,102392.19
2023-02-26T16:38:58.083Z,102391.72
2023-02-26T16:41:26.501Z,102326.16
2023-02-26T16:43:58.371Z,102389.81
2023-02-26T16:46:45.925Z,102397.19
2023-02-26T16:49:23.735Z,102413.19
2023-02-26T16:51:51.474Z,102407.53
2023-02-26T16:54:28.238Z,102397.81
2023-02-26T16:57:03.544Z,102411.38
2023-02-26T16:59:34.419Z,102417.00
2023-02-26T17:02:04.504Z,102394.88
2023-02-26T17:04:36.216Z,102419.91
2023-02-26T17:07:14.500Z,102427.38
2023-02-26T17:09:49.040Z,102430.41
2023-02-26T17:12:19.645Z,102435.59
2023-02-26T17:14:52.733Z,102449.84
2023-02-26T17:17:19.497Z,102412.28
2023-02-26T17:19:45.904Z,102453.38
2023-02-26T17:22:16.440Z,102465.97
2023-02-26T17:24:45.586Z,102462.94
2023-02-26T17:27:18.099Z,102465.94
2023-02-26T17:29:46.483Z,102452.72
2023-02-26T17:32:21.604Z,102464.16
2023-02-26T17:34:48.920Z,102454.09
2023-02-26T17:37:16.437Z,102430.50
2023-02-26T17:39:44.597Z,102464.44
2023-02-26T17:42:13.156Z,102470.06
2023-02-26T17:44:39.970Z,102471.34
2023-02-26T17:47:09.815Z,102468.09
2023-02-26T17:49:36.234Z,102472.81
2023-02-26T17:52:02.668Z,102465.47
2023-02-26T17:54:29.084Z,102471.69
2023-02-26T17:56:55.534Z,102466.00
2023-02-26T17:59:22.017Z,102487.97
2023-02-26T18:01:48.506Z,102488.25
2023-02-26T18:04:16.606Z,102471.38
2023-02-26T18:06:43.350Z,102499.31
2023-02-26T18:09:11.674Z,102496.91
2023-02-26T18:11:38.682Z,102482.53
2023-02-26T18:14:05.760Z,102493.81
2023-02-26T18:16:39.158Z,102493.19
2023-02-26T18:19:07.669Z,102467.59
2023-02-26T18:21:34.624Z,102474.75
2023-02-26T18:24:01.189Z,102478.53
2023-02-26T18:26:31.353Z,102494.25
2023-02-26T18:28:57.785Z,102502.88
2023-02-26T18:31:33.324Z,102468.06
2023-02-26T18:34:01.411Z,102496.19
2023-02-26T18:36:35.574Z,102510.25
2023-02-26T18:39:02.896Z,102510.69
2023-02-26T18:41:30.752Z,102513.72
2023-02-26T18:43:57.340Z,102493.34
2023-02-26T18:46:24.330Z,102497.84
2023-02-26T18:48:51.255Z,102504.25
2023-02-26T18:51:17.716Z,102513.34
2023-02-26T18:53:44.511Z,102511.03
2023-02-26T18:56:11.262Z,102479.28
2023-02-26T18:58:40.297Z,102508.13
2023-02-26T19:01:06.922Z,102510.03
2023-02-26T19:03:33.477Z,102511.16
2023-02-26T19:06:05.594Z,102490.66
2023-02-26T19:08:32.496Z,102518.41
2023-02-26T19:10:59.502Z,102508.22
2023-02-26T19:13:27.100Z,102510.84
2023-02-26T19:15:53.543Z,102511.06
2023-02-26T19:18:20.559Z,102510.34
2023-02-26T19:20:47.101Z,102510.44
2023-02-26T19:23:13.866Z,102518.47
2023-02-26T19:25:42.597Z,102503.84
2023-02-26T19:28:09.554Z,102518.78
2023-02-26T19:30:36.514Z,102523.31
2023-02-26T19:33:03.075Z,102489.66
2023-02-26T19:35:30.615Z,102516.63
2023-02-26T19:37:57.210Z,102487.56
2023-02-26T19:40:24.494Z,102518.72
2023-02-26T19:42:51.054Z,102488.72
2023-02-26T19:45:17.645Z,102529.50
2023-02-26T19:47:44.186Z,102511.53
2023-02-26T19:50:11.323Z,102528.09
2023-02-26T19:52:37.779Z,102542.25
2023-02-26T19:55:06.729Z,102495.53
2023-02-26T19:57:33.599Z,102522.44
2023-02-26T20:00:00.206Z,102524.25
2023-02-26T20:02:27.190Z,102491.56
2023-02-26T20:04:53.752Z,102537.44
2023-02-26T20:07:20.465Z,102531.47
2023-02-26T20:09:48.776Z,102537.47
2023-02-26T20:12:15.960Z,102515.06
2023-02-26T20:14:42.408Z,102549.63
2023-02-26T20:17:09.433Z,102543.63
2023-02-26T20:19:35.827Z,102547.19
2023-02-26T20:22:02.287Z,102551.56
2023-02-26T20:24:28.789Z,102560.25
2023-02-26T20:26:55.239Z,102552.50
2023-02-26T20:29:24.081Z,102553.28
2023-02-26T20:31:51.201Z,102554.22
2023-02-26T20:34:19.214Z,102539.56
2023-02-26T20:36:47.372Z,102552.56
2023-02-26T20:39:14.900Z,102561.25
2023-02-26T20:41:41.676Z,102554.44
2023-02-26T20:44:08.151Z,102564.88
2023-02-26T20:46:35.882Z,102566.75
2023-02-26T20:49:03.500Z,102569.47
2023-02-26T20:51:30.051Z,102566.06
2023-02-26T20:53:56.843Z,102568.78
2023-02-26T20:56:23.944Z,102528.16
2023-02-26T20:58:50.848Z,102546.38
2023-02-26T21:01:17.253Z,102580.25
2023-02-26T21:03:43.647Z,102580.28
2023-02-26T21:06:10.869Z,102564.78
2023-02-26T21:08:37.265Z,102576.00
2023-02-26T21:11:03.762Z,102579.59
2023-02-26T21:13:30.276Z,102576.19
2023-02-26T21:15:57.432Z,102572.78
2023-02-26T21:18:23.884Z,102588.47
2023-02-26T21:20:50.779Z,102552.94
2023-02-26T21:23:18.264Z,102551.44
2023-02-26T21:25:44.717Z,102586.91
2023-02-26T21:28:11.155Z,102586.88
2023-02-26T21:30:37.576Z,102577.47
2023-02-26T21:33:04.115Z,102600.94
2023-02-26T21:35:30.547Z,102589.63
2023-02-26T21:37:57.187Z,102596.66
2023-02-26T21:40:24.897Z,102595.81
2023-02-26T21:42:51.335Z,102599.34
2023-02-26T21:45:17.934Z,102576.03
2023-02-26T21:47:44.454Z,102588.13
2023-02-26T21:50:11.354Z,102589.06
2023-02-26T21:52:37.800Z,102615.09
2023-02-26T21:55:04.543Z,102620.38
2023-02-26T21:57:31.076Z,102604.78
2023-02-26T21:59:57.903Z,102610.94
2023-02-26T22:02:24.542Z,102614.38
2023-02-26T22:04:51.023Z,102596.38
2023-02-26T22:07:17.489Z,102611.84
2023-02-26T22:09:46.198Z,102614.50
2023-02-26T22:12:13.462Z,102622.34
2023-02-26T22:14:39.922Z,102579.91
2023-02-26T22:17:06.695Z,102622.41
2023-02-26T22:19:33.272Z,102577.44
2023-02-26T22:21:59.757Z,102583.44
2023-02-26T22:24:26.435Z,102573.91
2023-02-26T22:26:53.102Z,102594.63
2023-02-26T22:29:19.774Z,102602.53
2023-02-26T22:31:47.472Z,102615.50
2023-02-26T22:34:14.676Z,102618.09
2023-02-26T22:36:41.170Z,102608.63
2023-02-26T22:39:07.810Z,102604.34
2023-02-26T22:41:35.689Z,102608.66
2023-02-26T22:44:02.715Z,102628.72
2023-02-26T22:46:29.260Z,102614.00
2023-02-26T22:48:56.373Z,102627.94
2023-02-26T22:51:23.072Z,102620.94
2023-02-26T22:53:50.389Z,102623.56
2023-02-26T22:56:17.070Z,102628.00
2023-02-26T22:58:43.532Z,102618.44
2023-02-26T23:01:10.114Z,102635.00
2023-02-26T23:03:36.488Z,102604.66
2023-02-26T23:06:03.056Z,102633.28
2023-02-26T23:08:29.610Z,102606.50
2023-02-26T23:10:58.329Z,102631.56
2023-02-26T23:13:26.087Z,102625.50
2023-02-26T23:15:53.067Z,102631.56
2023-02-26T23:18:19.943Z,102633.34
2023-02-26T23:20:47.773Z,102620.41
2023-02-26T23:23:14.359Z,102642.06
2023-02-26T23:25:42.338Z,102646.50
2023-02-26T23:28:09.094Z,102639.50
2023-02-26T23:30:36.357Z,102646.44
2023-02-26T23:33:04.189Z,102646.44
2023-02-26T23:35:31.043Z,102631.75
2023-02-26T23:37:57.699Z,102641.19
2023-02-26T23:40:24.225Z,102594.44
2023-02-26T23:42:50.800Z,102656.72
2023-02-26T23:45:17.570Z,102636.81
2023-02-26T23:47:43.989Z,102655.81
2023-02-26T23:50:11.191Z,102647.22
2023-02-26T23:52:37.786Z,102651.41
2023-02-26T23:55:05.063Z,102649.66
2023-02-26T23:57:31.705Z,102640.03
2023-02-26T23:59:58.273Z,102648.72
